createdAt,value
2022-12-04T00:01:11.050Z,1.70
2022-12-04T00:03:38.291Z,1.70
2022-12-04T00:06:04.935Z,1.60
2022-12-04T00:08:31.836Z,1.60
2022-12-04T00:10:58.925Z,1.60
2022-12-04T00:13:26.038Z,1.60
2022-12-04T00:15:53.681Z,1.60
2022-12-04T00:18:20.476Z,1.60
2022-12-04T00:20:47.266Z,1.60
2022-12-04T00:23:13.893Z,1.60
2022-12-04T00:25:41.522Z,1.50
2022-12-04T00:28:10.520Z,1.50
2022-12-04T00:30:41.351Z,1.50
2022-12-04T00:33:07.942Z,1.50
2022-12-04T00:35:34.633Z,1.50
2022-12-04T00:38:01.214Z,1.60
2022-12-04T00:40:27.917Z,1.50
2022-12-04T00:42:54.608Z,1.50
2022-12-04T00:45:21.193Z,1.40
2022-12-04T00:47:47.965Z,1.60
2022-12-04T00:50:14.651Z,1.40
2022-12-04T00:52:41.259Z,1.50
2022-12-04T00:55:08.459Z,1.50
2022-12-04T00:57:35.050Z,1.50
2022-12-04T01:00:01.888Z,1.60
2022-12-04T01:02:30.430Z,1.50
2022-12-04T01:04:57.057Z,1.40
2022-12-04T01:07:23.802Z,1.50
2022-12-04T01:09:50.534Z,1.50
2022-12-04T01:12:20.717Z,1.50
2022-12-04T01:14:47.959Z,1.50
2022-12-04T01:17:14.770Z,1.50
2022-12-04T01:19:41.489Z,1.50
2022-12-04T01:22:08.265Z,1.50
2022-12-04T01:24:34.874Z,1.40
2022-12-04T01:27:01.829Z,1.50
2022-12-04T01:29:28.471Z,1.50
2022-12-04T01:31:55.193Z,1.60
2022-12-04T01:34:21.938Z,1.40
2022-12-04T01:36:48.524Z,1.30
2022-12-04T01:39:15.226Z,1.40
2022-12-04T01:41:41.840Z,1.40
2022-12-04T01:44:14.336Z,1.40
2022-12-04T01:46:42.740Z,1.40
2022-12-04T01:49:17.277Z,1.40
2022-12-04T01:51:50.719Z,1.40
2022-12-04T01:54:30.887Z,1.40
2022-12-04T01:57:07.867Z,1.40
2022-12-04T01:59:41.446Z,1.50
2022-12-04T02:02:12.015Z,1.40
2022-12-04T02:04:40.632Z,1.50
2022-12-04T02:07:07.432Z,1.40
2022-12-04T02:09:35.382Z,1.40
2022-12-04T02:12:35.640Z,1.50
2022-12-04T02:15:18.006Z,1.50
2022-12-04T02:18:10.429Z,1.50
2022-12-04T02:20:49.775Z,1.60
2022-12-04T02:23:53.560Z,1.50
2022-12-04T02:26:36.304Z,1.50
2022-12-04T02:29:32.658Z,1.40
2022-12-04T02:32:20.040Z,1.50
2022-12-04T02:35:09.676Z,1.40
2022-12-04T02:37:40.238Z,1.50
2022-12-04T02:40:35.269Z,1.50
2022-12-04T02:43:16.192Z,1.40
2022-12-04T02:46:07.893Z,1.40
2022-12-04T02:48:38.867Z,1.50
2022-12-04T02:51:08.444Z,1.50
2022-12-04T02:53:40.344Z,1.50
2022-12-04T02:56:12.579Z,1.40
2022-12-04T02:58:57.322Z,1.50
2022-12-04T03:01:31.062Z,1.40
2022-12-04T03:04:24.410Z,1.50
2022-12-04T03:07:06.511Z,1.50
2022-12-04T03:09:51.778Z,1.50
2022-12-04T03:12:39.953Z,1.60
2022-12-04T03:15:19.269Z,1.50
2022-12-04T03:18:00.964Z,1.50
2022-12-04T03:20:29.641Z,1.40
2022-12-04T03:23:03.079Z,1.40
2022-12-04T03:25:37.983Z,1.40
2022-12-04T03:28:11.048Z,1.50
2022-12-04T03:30:49.074Z,1.50
2022-12-04T03:33:18.428Z,1.50
2022-12-04T03:35:49.534Z,1.50
2022-12-04T03:38:27.840Z,1.40
2022-12-04T03:41:01.867Z,1.50
2022-12-04T03:43:36.428Z,1.50
2022-12-04T03:46:12.679Z,1.50
2022-12-04T03:48:47.544Z,1.60
2022-12-04T03:51:38.278Z,1.40
2022-12-04T03:54:21.179Z,1.30
2022-12-04T03:56:58.474Z,1.30
2022-12-04T03:59:38.938Z,1.30
2022-12-04T04:02:10.413Z,1.20
2022-12-04T04:04:40.831Z,1.20
2022-12-04T04:07:24.328Z,1.30
2022-12-04T04:09:56.439Z,1.30
2022-12-04T04:12:31.751Z,1.30
2022-12-04T04:15:36.547Z,1.30
2022-12-04T04:18:21.770Z,1.40
2022-12-04T04:21:17.798Z,1.40
2022-12-04T04:24:07.773Z,1.40
2022-12-04T04:26:42.588Z,1.40
2022-12-04T04:29:10.262Z,1.50
2022-12-04T04:31:53.395Z,1.50
2022-12-04T04:34:32.100Z,1.40
2022-12-04T04:37:06.216Z,1.50
2022-12-04T04:39:47.858Z,1.40
2022-12-04T04:42:23.094Z,1.50
2022-12-04T04:44:53.373Z,1.40
2022-12-04T04:47:47.084Z,1.40
2022-12-04T04:50:15.946Z,1.40
2022-12-04T04:52:47.278Z,1.30
2022-12-04T04:55:16.181Z,1.40
2022-12-04T04:57:42.924Z,1.40
2022-12-04T05:00:15.495Z,1.40
2022-12-04T05:02:42.711Z,1.40
2022-12-04T05:05:10.316Z,1.40
2022-12-04T05:07:36.926Z,1.30
2022-12-04T05:10:05.343Z,1.40
2022-12-04T05:12:31.962Z,1.50
2022-12-04T05:14:58.632Z,1.50
2022-12-04T05:17:25.236Z,1.40
2022-12-04T05:19:55.695Z,1.50
2022-12-04T05:22:27.563Z,1.50
2022-12-04T05:24:54.754Z,1.50
2022-12-04T05:27:22.376Z,1.40
2022-12-04T05:29:51.618Z,1.40
2022-12-04T05:32:18.241Z,1.40
2022-12-04T05:34:48.304Z,1.50
2022-12-04T05:37:15.037Z,1.40
2022-12-04T05:39:41.797Z,1.50
2022-12-04T05:42:08.597Z,1.40
2022-12-04T05:44:35.478Z,1.40
2022-12-04T05:47:02.420Z,1.40
2022-12-04T05:49:30.036Z,1.40
2022-12-04T05:51:56.825Z,1.40
2022-12-04T05:54:23.720Z,1.40
2022-12-04T05:56:50.715Z,1.50
2022-12-04T05:59:17.718Z,1.50
2022-12-04T06:01:44.913Z,1.40
2022-12-04T06:04:11.889Z,1.40
2022-12-04T06:06:39.000Z,1.50
2022-12-04T06:09:07.671Z,1.40
2022-12-04T06:11:37.084Z,1.40
2022-12-04T06:14:06.346Z,1.40
2022-12-04T06:16:35.676Z,1.40
2022-12-04T06:19:05.604Z,1.40
2022-12-04T06:21:36.314Z,1.30
2022-12-04T06:24:03.220Z,1.40
2022-12-04T06:26:29.881Z,1.40
2022-12-04T06:28:58.101Z,1.50
2022-12-04T06:31:27.149Z,1.40
2022-12-04T06:33:55.363Z,1.40
2022-12-04T06:36:22.517Z,1.50
2022-12-04T06:38:50.502Z,1.50
2022-12-04T06:41:19.959Z,1.40
2022-12-04T06:43:46.784Z,1.50
2022-12-04T06:46:16.727Z,1.50
2022-12-04T06:48:43.500Z,1.50
2022-12-04T06:51:15.241Z,1.50
2022-12-04T06:53:42.588Z,1.60
2022-12-04T06:56:12.985Z,1.50
2022-12-04T06:58:39.979Z,1.60
2022-12-04T07:01:09.017Z,1.50
2022-12-04T07:03:36.023Z,1.60
2022-12-04T07:06:18.097Z,1.60
2022-12-04T07:08:46.812Z,1.60
2022-12-04T07:11:14.352Z,1.60
2022-12-04T07:13:41.637Z,1.60
2022-12-04T07:16:11.077Z,1.70
2022-12-04T07:18:37.864Z,1.70
2022-12-04T07:21:09.404Z,1.70
2022-12-04T07:23:36.691Z,1.70
2022-12-04T07:26:08.213Z,1.80
2022-12-04T07:28:36.825Z,1.80
2022-12-04T07:31:08.322Z,1.80
2022-12-04T07:33:35.429Z,1.80
2022-12-04T07:36:05.579Z,1.80
2022-12-04T07:38:33.392Z,1.90
2022-12-04T07:41:00.734Z,1.80
2022-12-04T07:43:29.188Z,1.80
2022-12-04T07:45:56.449Z,1.80
2022-12-04T07:48:23.246Z,1.80
2022-12-04T07:50:50.051Z,1.80
2022-12-04T07:53:16.760Z,1.80
2022-12-04T07:55:43.329Z,1.80
2022-12-04T07:58:09.977Z,1.90
2022-12-04T08:00:36.591Z,1.90
2022-12-04T08:03:03.162Z,1.90
2022-12-04T08:05:29.914Z,1.90
2022-12-04T08:07:56.605Z,2.00
2022-12-04T08:10:23.263Z,2.00
2022-12-04T08:12:50.008Z,2.00
2022-12-04T08:15:16.801Z,2.00
2022-12-04T08:17:43.369Z,1.90
2022-12-04T08:20:10.401Z,1.90
2022-12-04T08:22:37.078Z,2.00
2022-12-04T08:25:03.928Z,1.90
2022-12-04T08:27:30.664Z,1.90
2022-12-04T08:29:57.579Z,1.90
2022-12-04T08:32:24.460Z,2.00
2022-12-04T08:34:55.755Z,2.00
2022-12-04T08:37:22.813Z,2.10
2022-12-04T08:39:49.627Z,2.00
2022-12-04T08:42:16.237Z,2.00
2022-12-04T08:44:42.815Z,2.00
2022-12-04T08:47:09.449Z,2.00
2022-12-04T08:49:36.057Z,2.00
2022-12-04T08:52:02.651Z,2.10
2022-12-04T08:54:34.505Z,2.10
2022-12-04T08:57:03.271Z,2.10
2022-12-04T08:59:29.949Z,2.10
2022-12-04T09:01:56.635Z,2.10
2022-12-04T09:04:23.325Z,2.10
2022-12-04T09:06:50.088Z,2.00
2022-12-04T09:09:16.860Z,2.00
2022-12-04T09:11:46.493Z,2.10
2022-12-04T09:14:13.236Z,2.10
2022-12-04T09:16:39.942Z,2.00
2022-12-04T09:19:06.609Z,2.00
2022-12-04T09:21:33.295Z,2.10
2022-12-04T09:24:00.146Z,2.00
2022-12-04T09:26:29.754Z,2.00
2022-12-04T09:28:58.551Z,2.10
2022-12-04T09:31:25.717Z,2.10
2022-12-04T09:33:52.923Z,2.10
2022-12-04T09:36:20.170Z,2.10
2022-12-04T09:38:49.699Z,2.10
2022-12-04T09:41:58.049Z,2.10
2022-12-04T09:44:38.582Z,2.10
2022-12-04T09:47:24.052Z,2.10
2022-12-04T09:49:55.986Z,2.20
2022-12-04T09:52:50.346Z,2.20
2022-12-04T09:55:31.475Z,2.20
2022-12-04T09:58:02.580Z,2.30
2022-12-04T10:00:33.673Z,2.40
2022-12-04T10:03:14.210Z,2.50
2022-12-04T10:05:56.431Z,2.50
2022-12-04T10:08:33.024Z,2.50
2022-12-04T10:11:22.274Z,2.50
2022-12-04T10:13:57.834Z,2.60
2022-12-04T10:16:28.349Z,2.60
2022-12-04T10:19:07.262Z,2.50
2022-12-04T10:22:15.901Z,2.50
2022-12-04T10:24:51.543Z,2.60
2022-12-04T10:27:48.803Z,2.70
2022-12-04T10:30:31.120Z,2.70
2022-12-04T10:33:03.690Z,2.70
2022-12-04T10:35:32.362Z,2.70
2022-12-04T10:38:04.153Z,2.70
2022-12-04T10:40:55.868Z,2.80
2022-12-04T10:43:43.014Z,2.80
2022-12-04T10:46:22.840Z,2.90
2022-12-04T10:49:12.425Z,2.80
2022-12-04T10:51:41.005Z,2.80
2022-12-04T10:54:21.364Z,2.80
2022-12-04T10:57:03.606Z,2.70
2022-12-04T10:59:30.951Z,2.90
2022-12-04T11:02:22.598Z,2.90
2022-12-04T11:05:07.858Z,2.90
2022-12-04T11:07:47.329Z,3.00
2022-12-04T11:10:43.208Z,3.00
2022-12-04T11:13:12.677Z,3.10
2022-12-04T11:15:50.379Z,3.00
2022-12-04T11:18:18.512Z,3.00
2022-12-04T11:20:50.944Z,3.00
2022-12-04T11:23:18.191Z,2.90
2022-12-04T11:25:50.977Z,2.90
2022-12-04T11:31:18.122Z,3.00
2022-12-04T11:33:49.786Z,3.00
2022-12-04T11:36:28.410Z,3.00
2022-12-04T11:39:16.348Z,3.00
2022-12-04T11:41:43.316Z,3.10
2022-12-04T11:44:26.585Z,3.20
2022-12-04T11:46:59.149Z,3.20
2022-12-04T11:49:27.964Z,3.20
2022-12-04T11:52:18.911Z,3.10
2022-12-04T11:54:51.391Z,3.20
2022-12-04T11:57:42.383Z,3.10
2022-12-04T12:00:16.214Z,3.10
2022-12-04T12:03:20.813Z,3.30
2022-12-04T12:06:03.044Z,3.30
2022-12-04T12:08:59.989Z,3.20
2022-12-04T12:11:35.834Z,3.20
2022-12-04T12:14:16.770Z,3.00
2022-12-04T12:19:47.492Z,3.10
2022-12-04T12:22:31.905Z,3.10
2022-12-04T12:25:04.699Z,3.10
2022-12-04T12:27:48.034Z,3.10
2022-12-04T12:30:22.493Z,3.10
2022-12-04T12:32:55.295Z,3.10
2022-12-04T12:35:35.736Z,3.10
2022-12-04T12:38:09.902Z,3.00
2022-12-04T12:40:42.780Z,3.20
2022-12-04T12:43:21.127Z,3.20
2022-12-04T12:46:02.860Z,3.20
2022-12-04T12:48:58.365Z,3.20
2022-12-04T12:52:00.164Z,3.20
2022-12-04T12:54:51.047Z,3.20
2022-12-04T12:57:42.189Z,3.20
2022-12-04T13:00:18.235Z,3.20
2022-12-04T13:03:01.433Z,3.20
2022-12-04T13:05:40.703Z,3.20
2022-12-04T13:08:49.260Z,3.20
2022-12-04T13:11:23.517Z,3.20
2022-12-04T13:14:03.090Z,3.20
2022-12-04T13:16:41.944Z,3.10
2022-12-04T13:19:13.048Z,3.20
2022-12-04T13:22:02.272Z,3.20
2022-12-04T13:24:40.322Z,3.20
2022-12-04T13:27:17.488Z,3.20
2022-12-04T13:30:14.360Z,3.20
2022-12-04T13:33:05.584Z,3.20
2022-12-04T13:36:03.004Z,3.20
2022-12-04T13:38:58.779Z,3.20
2022-12-04T13:41:27.637Z,3.20
2022-12-04T13:43:55.560Z,3.20
2022-12-04T13:46:35.392Z,3.20
2022-12-04T13:49:20.188Z,3.20
2022-12-04T13:51:49.038Z,3.20
2022-12-04T13:54:15.628Z,3.20
2022-12-04T13:56:47.945Z,3.20
2022-12-04T13:59:30.973Z,3.30
2022-12-04T14:02:04.931Z,3.30
2022-12-04T14:04:53.675Z,3.30
2022-12-04T14:07:37.032Z,3.20
2022-12-04T14:10:14.137Z,3.20
2022-12-04T14:12:49.415Z,3.20
2022-12-04T14:15:25.972Z,3.20
2022-12-04T14:18:02.755Z,3.10
2022-12-04T14:20:32.428Z,3.10
2022-12-04T14:23:36.559Z,3.10
2022-12-04T14:26:05.293Z,3.10
2022-12-04T14:28:34.930Z,3.10
2022-12-04T14:31:21.539Z,3.00
2022-12-04T14:33:58.961Z,3.00
2022-12-04T14:36:33.341Z,2.90
2022-12-04T14:39:33.342Z,2.90
2022-12-04T14:42:15.141Z,2.90
2022-12-04T14:44:44.875Z,2.90
2022-12-04T14:47:15.268Z,2.90
2022-12-04T14:49:53.863Z,2.80
2022-12-04T14:52:49.754Z,2.80
2022-12-04T14:55:48.854Z,2.80
2022-12-04T14:58:29.795Z,2.80
2022-12-04T15:01:01.907Z,2.90
2022-12-04T15:03:32.207Z,2.90
2022-12-04T15:06:08.548Z,2.80
2022-12-04T15:08:35.559Z,2.90
2022-12-04T15:11:24.934Z,2.90
2022-12-04T15:13:51.683Z,2.90
2022-12-04T15:16:22.682Z,2.90
2022-12-04T15:18:58.080Z,2.90
2022-12-04T15:21:40.728Z,2.90
2022-12-04T15:24:20.226Z,2.90
2022-12-04T15:26:48.346Z,2.80
2022-12-04T15:29:22.151Z,2.90
2022-12-04T15:31:56.507Z,2.90
2022-12-04T15:34:36.662Z,2.90
2022-12-04T15:37:12.418Z,2.90
2022-12-04T15:39:39.907Z,2.80
2022-12-04T15:42:28.325Z,2.90
2022-12-04T15:45:02.188Z,2.90
2022-12-04T15:47:40.968Z,2.90
2022-12-04T15:50:13.240Z,2.90
2022-12-04T15:52:56.662Z,2.90
2022-12-04T15:55:25.038Z,2.90
2022-12-04T15:57:56.113Z,2.90
2022-12-04T16:00:25.554Z,3.00
2022-12-04T16:02:52.441Z,2.90
2022-12-04T16:05:22.204Z,2.90
2022-12-04T16:07:50.227Z,3.00
2022-12-04T16:10:35.994Z,2.90
2022-12-04T16:13:05.253Z,2.90
2022-12-04T16:15:40.951Z,2.90
2022-12-04T16:18:10.787Z,2.80
2022-12-04T16:20:38.386Z,2.80
2022-12-04T16:23:05.604Z,2.90
2022-12-04T16:25:32.843Z,2.90
2022-12-04T16:28:00.404Z,2.90
2022-12-04T16:30:33.790Z,3.00
2022-12-04T16:33:00.524Z,3.00
2022-12-04T16:35:27.201Z,2.90
2022-12-04T16:37:53.909Z,2.90
2022-12-04T16:40:20.561Z,2.90
2022-12-04T16:42:47.198Z,2.90
2022-12-04T16:45:48.200Z,2.90
2022-12-04T16:48:15.439Z,2.90
2022-12-04T16:50:42.693Z,2.90
2022-12-04T16:53:17.435Z,2.90
2022-12-04T16:55:46.748Z,2.90
2022-12-04T16:58:13.790Z,2.90
2022-12-04T17:00:43.626Z,3.00
2022-12-04T17:03:30.509Z,3.00
2022-12-04T17:05:58.653Z,2.90
2022-12-04T17:08:25.264Z,3.10
2022-12-04T17:10:52.804Z,3.00
2022-12-04T17:13:21.502Z,3.00
2022-12-04T17:15:48.693Z,3.00
2022-12-04T17:18:20.758Z,3.00
2022-12-04T17:20:48.059Z,3.00
2022-12-04T17:23:14.862Z,3.00
2022-12-04T17:25:41.582Z,3.00
2022-12-04T17:28:08.328Z,3.00
2022-12-04T17:30:36.376Z,3.00
2022-12-04T17:33:04.593Z,3.00
2022-12-04T17:35:31.464Z,3.00
2022-12-04T17:38:03.870Z,3.10
2022-12-04T17:40:32.447Z,3.10
2022-12-04T17:42:59.544Z,3.10
2022-12-04T17:45:26.413Z,3.10
2022-12-04T17:47:53.073Z,3.10
2022-12-04T17:50:19.694Z,3.00
2022-12-04T17:52:46.383Z,3.00
2022-12-04T17:55:13.952Z,3.00
2022-12-04T17:57:40.559Z,3.10
2022-12-04T18:00:08.094Z,3.00
2022-12-04T18:02:34.906Z,2.90
2022-12-04T18:05:01.679Z,3.00
2022-12-04T18:07:28.300Z,2.90
2022-12-04T18:09:55.419Z,2.90
2022-12-04T18:12:22.267Z,3.00
2022-12-04T18:14:48.856Z,3.00
2022-12-04T18:17:17.619Z,3.00
2022-12-04T18:19:44.271Z,3.00
2022-12-04T18:22:11.054Z,3.00
2022-12-04T18:24:37.696Z,3.10
2022-12-04T18:27:05.298Z,3.10
2022-12-04T18:29:31.907Z,3.10
2022-12-04T18:31:58.542Z,3.00
2022-12-04T18:34:25.349Z,3.10
2022-12-04T18:36:52.361Z,3.00
2022-12-04T18:39:21.748Z,3.10
2022-12-04T18:41:49.063Z,3.00
2022-12-04T18:44:17.349Z,2.90
2022-12-04T18:46:43.980Z,3.00
2022-12-04T18:49:10.945Z,3.00
2022-12-04T18:51:46.993Z,3.00
2022-12-04T18:54:21.795Z,2.90
2022-12-04T18:56:48.997Z,2.90
2022-12-04T18:59:18.931Z,2.90
2022-12-04T19:01:46.288Z,2.90
2022-12-04T19:04:16.637Z,2.80
2022-12-04T19:06:45.849Z,2.80
2022-12-04T19:09:18.532Z,2.70
2022-12-04T19:11:46.124Z,2.70
2022-12-04T19:14:21.004Z,2.60
2022-12-04T19:16:50.009Z,2.70
2022-12-04T19:19:17.035Z,2.70
2022-12-04T19:21:44.534Z,2.70
2022-12-04T19:24:11.618Z,2.70
2022-12-04T19:26:38.558Z,2.70
2022-12-04T19:29:07.041Z,2.80
2022-12-04T19:31:35.772Z,2.80
2022-12-04T19:34:03.391Z,2.80
2022-12-04T19:36:31.264Z,2.70
2022-12-04T19:38:58.700Z,2.60
2022-12-04T19:41:29.965Z,2.50
2022-12-04T19:43:58.807Z,2.50
2022-12-04T19:46:28.672Z,2.60
2022-12-04T19:48:58.384Z,2.60
2022-12-04T19:51:25.527Z,2.60
2022-12-04T19:53:53.459Z,2.70
2022-12-04T19:56:25.485Z,2.70
2022-12-04T19:58:53.979Z,2.70
2022-12-04T20:01:25.348Z,2.70
2022-12-04T20:03:52.747Z,2.60
2022-12-04T20:06:21.248Z,2.60
2022-12-04T20:08:57.226Z,2.60
2022-12-04T20:11:25.026Z,2.70
2022-12-04T20:13:55.503Z,2.60
2022-12-04T20:16:24.445Z,2.50
2022-12-04T20:18:53.466Z,2.50
2022-12-04T20:21:21.397Z,2.50
2022-12-04T20:23:50.011Z,2.50
2022-12-04T20:26:28.533Z,2.50
2022-12-04T20:28:56.939Z,2.50
2022-12-04T20:31:24.891Z,2.50
2022-12-04T20:33:54.432Z,2.50
2022-12-04T20:36:23.773Z,2.50
2022-12-04T20:38:52.733Z,2.60
2022-12-04T20:41:20.255Z,2.60
2022-12-04T20:43:48.176Z,2.70
2022-12-04T20:46:26.736Z,2.70
2022-12-04T20:48:53.887Z,2.70
2022-12-04T20:51:27.468Z,2.60
2022-12-04T20:53:55.435Z,2.70
2022-12-04T20:56:24.433Z,2.70
2022-12-04T20:58:52.790Z,2.70
2022-12-04T21:01:19.963Z,2.70
2022-12-04T21:03:47.267Z,2.80
2022-12-04T21:06:20.024Z,2.90
2022-12-04T21:08:53.716Z,2.80
2022-12-04T21:11:21.810Z,2.80
2022-12-04T21:14:07.079Z,2.80
2022-12-04T21:16:33.904Z,2.80
2022-12-04T21:19:01.280Z,2.70
2022-12-04T21:21:27.938Z,2.70
2022-12-04T21:23:54.741Z,2.70
2022-12-04T21:26:22.139Z,2.60
2022-12-04T21:28:48.784Z,2.70
2022-12-04T21:31:15.485Z,2.70
2022-12-04T21:33:42.067Z,2.60
2022-12-04T21:36:09.696Z,2.60
2022-12-04T21:38:38.025Z,2.60
2022-12-04T21:41:07.567Z,2.60
2022-12-04T21:43:36.470Z,2.60
2022-12-04T21:46:09.628Z,2.60
2022-12-04T21:48:37.027Z,2.50
2022-12-04T21:51:13.233Z,2.50
2022-12-04T21:53:54.796Z,2.50
2022-12-04T21:56:22.553Z,2.50
2022-12-04T21:58:49.292Z,2.50
2022-12-04T22:01:18.467Z,2.50
2022-12-04T22:03:45.710Z,2.40
2022-12-04T22:06:12.719Z,2.50
2022-12-04T22:08:41.124Z,2.40
2022-12-04T22:11:09.609Z,2.40
2022-12-04T22:13:37.265Z,2.40
2022-12-04T22:16:06.176Z,2.30
2022-12-04T22:18:33.778Z,2.40
2022-12-04T22:21:03.477Z,2.40
2022-12-04T22:23:30.022Z,2.50
2022-12-04T22:25:56.734Z,2.50
2022-12-04T22:28:23.390Z,2.50
2022-12-04T22:30:50.244Z,2.50
2022-12-04T22:33:16.855Z,2.50
2022-12-04T22:35:43.456Z,2.50
2022-12-04T22:38:10.215Z,2.50
2022-12-04T22:40:37.761Z,2.30
2022-12-04T22:43:04.454Z,2.40
2022-12-04T22:45:31.038Z,2.40
2022-12-04T22:47:57.616Z,2.30
2022-12-04T22:50:24.206Z,2.30
2022-12-04T22:52:50.862Z,2.30
2022-12-04T22:55:17.596Z,2.30
2022-12-04T22:57:44.159Z,2.30
2022-12-04T23:00:11.270Z,2.40
2022-12-04T23:02:37.939Z,2.40
2022-12-04T23:05:04.868Z,2.40
2022-12-04T23:07:31.625Z,2.40
2022-12-04T23:09:58.384Z,2.50
2022-12-04T23:12:25.521Z,2.50
2022-12-04T23:14:52.198Z,2.50
2022-12-04T23:17:18.833Z,2.40
2022-12-04T23:19:45.592Z,2.50
2022-12-04T23:22:12.236Z,2.50
2022-12-04T23:24:38.990Z,2.40
2022-12-04T23:27:05.597Z,2.40
2022-12-04T23:32:19.186Z,2.60
2022-12-04T23:34:46.119Z,2.60
2022-12-04T23:37:12.786Z,2.50
2022-12-04T23:39:39.369Z,2.50
2022-12-04T23:42:06.276Z,2.50
2022-12-04T23:44:32.920Z,2.60
2022-12-04T23:46:59.567Z,2.50
2022-12-04T23:49:26.370Z,2.50
2022-12-04T23:51:53.126Z,2.40
2022-12-04T23:54:19.736Z,2.40
2022-12-04T23:56:46.435Z,2.40
2022-12-04T23:59:13.124Z,2.40
